Time;durP1;ratioP1;P1;durP2;ratioP2;P2;SDS_P1;SDS_P2;PMS_P1;PMS_P2;Temp;Humidity;BMP_temperature;BMP_pressure;BME280_temperature;BME280_humidity;BME280_pressure;Samples;Min_cycle;Max_cycle;Signal;HPM_P1;HPM_P2
2021/04/13 00:01:16;;;;;;;7.00;5.28;;;;;;;0.82;81.51;93420.81;2068224;69;20160;-73
2021/04/13 00:03:44;;;;;;;6.32;5.32;;;;;;;1.12;81.04;93418.50;2067667;69;20141;-73
2021/04/13 00:06:14;;;;;;;7.53;5.43;;;;;;;1.01;81.37;93422.25;2068271;69;20147;-73
2021/04/13 00:08:40;;;;;;;7.78;5.00;;;;;;;1.13;80.86;93416.50;2068359;69;20273;-73
2021/04/13 00:11:09;;;;;;;7.05;5.55;;;;;;;1.18;80.66;93419.16;2068280;69;20137;-70
2021/04/13 00:13:38;;;;;;;6.93;4.63;;;;;;;1.31;80.76;93415.63;2068286;69;20304;-72
2021/04/13 00:16:17;;;;;;;6.50;4.80;;;;;;;1.52;79.74;93418.53;2068179;69;20527;-71
2021/04/13 00:18:45;;;;;;;6.18;4.60;;;;;;;1.45;79.35;93417.13;2068161;69;20175;-73
2021/04/13 00:21:26;;;;;;;5.22;4.47;;;;;;;1.42;78.94;93420.22;2067685;69;20515;-69
2021/04/13 00:23:53;;;;;;;5.28;4.40;;;;;;;1.52;79.33;93421.31;2068225;69;20500;-69
2021/04/13 00:26:25;;;;;;;4.80;4.28;;;;;;;1.66;78.70;93422.78;2068229;69;20608;-72
2021/04/13 00:28:53;;;;;;;4.57;4.05;;;;;;;1.48;78.51;93420.88;2068224;69;20152;-72
2021/04/13 00:31:44;;;;;;;6.90;4.90;;;;;;;0.92;80.35;93419.16;2067556;69;20252;-69
2021/04/13 00:34:23;;;;;;;7.25;5.28;;;;;;;0.85;81.55;93414.97;2068334;69;20144;-75
2021/04/13 00:36:51;;;;;;;5.80;4.45;;;;;;;0.77;81.40;93422.41;2068497;69;20168;-70
2021/04/13 00:39:29;;;;;;;6.63;5.03;;;;;;;0.73;82.50;93417.19;2068693;69;20136;-72
2021/04/13 00:41:59;;;;;;;5.70;4.68;;;;;;;0.41;82.86;93422.75;2068878;69;20232;-73
2021/04/13 00:44:25;;;;;;;4.72;3.90;;;;;;;0.86;82.63;93413.69;2068816;69;20248;-75
2021/04/13 00:47:01;;;;;;;5.15;3.97;;;;;;;0.87;82.40;93414.41;2068673;69;20664;-73
2021/04/13 00:49:31;;;;;;;5.32;4.20;;;;;;;1.16;81.11;93402.31;2068818;69;20602;-70
2021/04/13 00:52:01;;;;;;;6.10;5.07;;;;;;;0.68;81.68;93406.91;2068702;69;20205;-71
2021/04/13 00:54:32;;;;;;;6.50;5.28;;;;;;;0.47;82.89;93411.56;2068700;69;20149;-69
2021/04/13 00:57:24;;;;;;;8.10;5.55;;;;;;;0.72;83.02;93420.47;2068674;69;20259;-73
2021/04/13 00:59:51;;;;;;;6.38;5.35;;;;;;;0.42;83.46;93417.94;2067287;69;20300;-70
2021/04/13 01:02:26;;;;;;;6.70;5.18;;;;;;;0.75;82.98;93422.94;2068714;69;20187;-73
2021/04/13 01:05:00;;;;;;;8.30;5.72;;;;;;;0.52;83.49;93412.75;2068653;69;20151;-73
2021/04/13 01:07:42;;;;;;;6.32;5.45;;;;;;;0.75;83.36;93416.66;2068745;69;20500;-72
2021/04/13 01:10:15;;;;;;;7.20;6.05;;;;;;;0.72;83.45;93414.94;2068657;69;20144;-71
2021/04/13 01:12:50;;;;;;;6.85;5.45;;;;;;;0.27;84.07;93414.91;2068591;69;20144;-70
2021/04/13 01:15:17;;;;;;;7.32;5.85;;;;;;;0.41;84.20;93416.44;2068477;69;20133;-70
2021/04/13 01:17:44;;;;;;;7.68;6.25;;;;;;;0.39;84.72;93416.97;2068660;69;20161;-73
2021/04/13 01:20:17;;;;;;;10.43;6.70;;;;;;;0.18;84.71;93419.56;2068779;69;20201;-73
2021/04/13 01:25:26;;;;;;;8.18;6.18;;;;;;;0.36;85.04;93414.50;2068560;69;20231;-70
2021/04/13 01:27:53;;;;;;;9.40;7.05;;;;;;;0.18;84.84;93413.25;2068714;69;20148;-72
2021/04/13 01:30:22;;;;;;;8.32;6.70;;;;;;;-0.04;85.57;93411.59;2068495;69;20642;-72
2021/04/13 01:32:48;;;;;;;10.23;7.60;;;;;;;-0.21;86.09;93411.81;2068578;69;20163;-73
2021/04/13 01:35:16;;;;;;;10.82;7.68;;;;;;;0.07;86.23;93410.66;2068637;69;20192;-71
2021/04/13 01:38:01;;;;;;;9.82;7.35;;;;;;;0.61;85.26;93417.91;2068523;69;20169;-73
2021/04/13 01:40:44;;;;;;;9.85;7.63;;;;;;;0.34;85.01;93412.28;2068589;69;20140;-72
2021/04/13 01:43:10;;;;;;;8.88;7.28;;;;;;;0.44;84.81;93420.94;2068586;69;20157;-70
2021/04/13 01:45:38;;;;;;;8.05;6.40;;;;;;;0.48;83.93;93422.13;2067948;69;20172;-70
2021/04/13 01:48:06;;;;;;;8.80;6.95;;;;;;;0.80;82.84;93412.28;2068614;69;20236;-72
2021/04/13 01:50:37;;;;;;;7.57;6.45;;;;;;;0.60;82.56;93416.41;2068607;69;20175;-74
2021/04/13 01:53:07;;;;;;;7.88;6.55;;;;;;;0.85;82.19;93414.22;2068601;69;20160;-68
2021/04/13 01:55:35;;;;;;;8.40;6.82;;;;;;;0.84;81.65;93416.25;2068643;69;20148;-71
2021/04/13 01:58:10;;;;;;;8.60;7.30;;;;;;;0.28;82.58;93414.38;2068524;69;20156;-74
2021/04/13 02:00:48;;;;;;;9.73;7.70;;;;;;;0.60;83.12;93413.63;2068423;69;20239;-74
2021/04/13 02:03:28;;;;;;;8.77;7.20;;;;;;;0.79;82.31;93413.56;2068597;69;20607;-72
2021/04/13 02:06:00;;;;;;;9.45;7.20;;;;;;;0.86;81.55;93410.91;2068532;69;20153;-71
2021/04/13 02:08:32;;;;;;;9.93;7.32;;;;;;;1.05;80.73;93415.63;2068123;69;20211;-72
2021/04/13 02:11:04;;;;;;;;;;;;;;;1.02;81.17;93418.19;2068684;69;20267;-73
2021/04/13 02:13:56;;;;;;;7.75;6.80;;;;;;;0.95;80.92;93412.53;2068538;69;20053;-73
2021/04/13 02:16:29;;;;;;;8.43;7.07;;;;;;;1.17;80.03;93414.88;2068493;69;20144;-72
2021/04/13 02:18:56;;;;;;;8.02;6.82;;;;;;;1.18;79.48;93412.84;2068534;69;20137;-73
2021/04/13 02:21:29;;;;;;;8.05;7.07;;;;;;;1.20;79.63;93404.78;2068463;69;20196;-73
2021/04/13 02:23:56;;;;;;;;;;;;;;;1.16;79.43;93409.88;2068708;69;20148;-70
2021/04/13 02:26:22;;;;;;;7.45;6.43;;;;;;;1.10;79.19;93417.53;2068502;69;20056;-73
2021/04/13 02:28:51;;;;;;;8.23;6.63;;;;;;;1.15;78.93;93411.91;2068471;69;20133;-69
2021/04/13 02:31:47;;;;;;;8.30;6.70;;;;;;;1.15;79.03;93417.47;2068495;69;20156;-73
2021/04/13 02:34:15;;;;;;;8.55;6.60;;;;;;;1.05;78.43;93410.81;2068559;69;20288;-72
2021/04/13 02:36:43;;;;;;;8.35;6.65;;;;;;;1.19;78.67;93409.56;2068472;69;20605;-69
2021/04/13 02:39:14;;;;;;;8.55;6.75;;;;;;;1.22;78.34;93411.25;2068329;69;20170;-70
2021/04/13 02:41:49;;;;;;;8.60;6.40;;;;;;;1.17;78.20;93408.59;2068416;69;20606;-70
2021/04/13 02:44:18;;;;;;;8.32;6.43;;;;;;;1.01;78.03;93404.88;2068528;69;20272;-70
2021/04/13 02:46:44;;;;;;;8.98;6.50;;;;;;;1.23;77.66;93400.91;2068429;69;20140;-70
2021/04/13 02:49:19;;;;;;;7.20;6.22;;;;;;;1.19;77.74;93401.25;2068486;69;20141;-69
2021/04/13 02:51:53;;;;;;;8.20;6.88;;;;;;;1.06;77.54;93406.78;2068523;69;20152;-69
2021/04/13 02:54:22;;;;;;;7.97;6.78;;;;;;;1.10;76.97;93400.91;2068521;69;20564;-70
2021/04/13 02:56:51;;;;;;;7.88;6.75;;;;;;;1.08;77.07;93404.22;2068717;69;20128;-70
2021/04/13 02:59:17;;;;;;;9.35;6.90;;;;;;;0.93;77.73;93401.97;2068465;69;20218;-70
2021/04/13 03:01:54;;;;;;;9.57;7.18;;;;;;;1.01;77.88;93408.38;2068311;69;20148;-69
2021/04/13 03:04:21;;;;;;;8.95;7.40;;;;;;;0.87;77.30;93415.19;2068463;69;20187;-69
2021/04/13 03:06:51;;;;;;;9.95;6.93;;;;;;;1.14;76.87;93415.19;2068489;69;20144;-71
2021/04/13 03:09:22;;;;;;;9.45;7.22;;;;;;;0.97;77.12;93407.94;2068497;69;20224;-71
2021/04/13 03:11:53;;;;;;;9.35;7.20;;;;;;;1.08;76.47;93409.03;2068615;69;20168;-72
2021/04/13 03:14:20;;;;;;;9.38;7.65;;;;;;;0.89;76.95;93422.97;2068698;69;20606;-71
2021/04/13 03:16:49;;;;;;;10.52;7.30;;;;;;;0.91;76.66;93412.81;2068345;69;20157;-69
2021/04/13 03:19:20;;;;;;;8.52;7.13;;;;;;;0.92;77.03;93411.56;2068546;69;20245;-70
2021/04/13 03:21:50;;;;;;;9.32;7.30;;;;;;;0.89;76.78;93414.66;2068402;69;20141;-69
2021/04/13 03:24:28;;;;;;;10.25;7.47;;;;;;;1.11;76.54;93411.47;2067899;69;20148;-69
2021/04/13 03:27:01;;;;;;;9.02;7.05;;;;;;;0.98;76.21;93411.47;2068484;69;20141;-71
2021/04/13 03:29:28;;;;;;;9.18;7.10;;;;;;;1.15;76.27;93400.81;2068437;69;20180;-70
2021/04/13 03:31:55;;;;;;;9.35;7.18;;;;;;;1.07;75.79;93402.72;2068302;69;20171;-71
2021/04/13 03:34:22;;;;;;;8.90;6.75;;;;;;;0.82;76.57;93402.16;2068440;69;20147;-70
2021/04/13 03:36:50;;;;;;;8.32;7.25;;;;;;;0.86;76.55;93387.97;2068465;69;20155;-69
2021/04/13 03:39:30;;;;;;;9.23;7.57;;;;;;;0.98;75.94;93403.16;2068417;69;20156;-73
2021/04/13 03:41:57;;;;;;;9.95;7.32;;;;;;;1.01;76.17;93402.84;2068489;69;20133;-71
2021/04/13 03:44:24;;;;;;;9.38;7.07;;;;;;;0.93;75.79;93399.19;2067928;69;20137;-69
2021/04/13 03:46:51;;;;;;;8.77;7.05;;;;;;;1.11;75.20;93410.75;2068251;69;20160;-70
2021/04/13 03:49:29;;;;;;;9.90;7.65;;;;;;;1.10;75.22;93410.00;2068323;69;20140;-70
2021/04/13 03:52:01;;;;;;;9.95;7.05;;;;;;;1.38;74.45;93417.03;2068348;69;20595;-70
2021/04/13 03:54:30;;;;;;;9.82;7.25;;;;;;;1.36;74.36;93414.03;2068367;69;20667;-70
2021/04/13 03:56:56;;;;;;;11.48;7.82;;;;;;;1.33;75.29;93413.09;2068304;69;20601;-69
2021/04/13 03:59:26;;;;;;;9.00;7.00;;;;;;;0.85;74.85;93412.19;2068300;69;20231;-70
2021/04/13 04:01:52;;;;;;;10.30;7.40;;;;;;;1.21;74.88;93403.47;2067651;69;20144;-73
2021/04/13 04:04:40;;;;;;;7.78;6.88;;;;;;;1.25;74.99;93407.44;2068520;69;20136;-70
2021/04/13 04:07:28;;;;;;;9.27;7.20;;;;;;;1.04;75.09;93408.59;2068320;69;20168;-70
2021/04/13 04:09:54;;;;;;;9.23;6.95;;;;;;;0.75;75.95;93413.88;2068244;69;20147;-68
2021/04/13 04:12:28;;;;;;;9.10;7.25;;;;;;;0.89;75.51;93420.19;2068175;69;20152;-69
2021/04/13 04:15:01;;;;;;;10.07;8.15;;;;;;;0.74;76.34;93418.69;2068168;69;20177;-69
2021/04/13 04:17:32;;;;;;;9.05;7.75;;;;;;;0.93;76.11;93426.19;2068300;69;20136;-69
2021/04/13 04:20:09;;;;;;;10.87;7.70;;;;;;;0.91;75.57;93425.94;2068281;69;20389;-70
2021/04/13 04:22:49;;;;;;;8.43;6.57;;;;;;;1.06;74.61;93420.66;2067802;69;20144;-69
2021/04/13 04:25:24;;;;;;;8.73;7.35;;;;;;;1.14;74.28;93421.50;2068234;69;20144;-70
2021/04/13 04:27:54;;;;;;;9.13;7.32;;;;;;;1.23;74.53;93421.06;2068241;69;20213;-71
2021/04/13 04:30:26;;;;;;;9.70;7.78;;;;;;;0.91;74.55;93432.22;2068210;69;20145;-72
2021/04/13 04:32:53;;;;;;;13.48;9.70;;;;;;;0.34;77.94;93425.38;2068237;69;20152;-70
2021/04/13 04:35:43;;;;;;;11.30;8.77;;;;;;;1.06;76.98;93428.22;2068221;69;20165;-71
2021/04/13 04:38:13;;;;;;;12.57;9.32;;;;;;;0.65;77.42;93427.41;2068113;69;20141;-72
2021/04/13 04:40:58;;;;;;;10.70;8.73;;;;;;;0.63;77.93;93432.72;2068194;69;20175;-70
2021/04/13 04:43:41;;;;;;;10.18;8.35;;;;;;;0.87;76.87;93428.28;2068342;69;20627;-69
2021/04/13 04:46:07;;;;;;;12.57;9.40;;;;;;;1.11;76.12;93427.38;2068093;69;20152;-70
2021/04/13 04:48:36;;;;;;;15.05;9.98;;;;;;;0.66;77.42;93434.44;2068206;69;20232;-72
2021/04/13 04:51:04;;;;;;;16.05;10.77;;;;;;;0.79;77.43;93432.97;2068153;69;20125;-71
2021/04/13 04:53:31;;;;;;;15.27;9.30;;;;;;;0.84;76.82;93441.19;2068231;69;20172;-70
2021/04/13 04:55:59;;;;;;;11.00;8.60;;;;;;;1.19;75.52;93431.75;2068168;69;20152;-69
2021/04/13 04:58:25;;;;;;;10.02;8.18;;;;;;;1.10;74.72;93434.19;2068160;69;20235;-71
2021/04/13 05:00:53;;;;;;;9.68;6.80;;;;;;;1.14;73.57;93442.94;2067997;69;20148;-72
2021/04/13 05:03:19;;;;;;;10.05;7.53;;;;;;;1.30;74.55;93436.34;2068125;69;20206;-69
2021/04/13 05:05:45;;;;;;;11.20;8.48;;;;;;;1.08;74.54;93443.03;2068132;69;20152;-72
2021/04/13 05:08:11;;;;;;;11.32;8.25;;;;;;;0.11;78.29;93449.88;2068134;69;20231;-72
2021/04/13 05:10:37;;;;;;;11.30;8.65;;;;;;;0.45;78.73;93450.88;2068149;69;20155;-70
2021/04/13 05:13:04;;;;;;;13.95;9.70;;;;;;;0.24;79.22;93450.69;2068185;69;20609;-70
2021/04/13 05:15:30;;;;;;;13.77;8.85;;;;;;;0.07;79.57;93449.44;2067485;69;20153;-70
2021/04/13 05:17:55;;;;;;;11.75;9.40;;;;;;;0.72;78.27;93454.47;2067619;69;20145;-70
2021/04/13 05:20:21;;;;;;;11.90;8.98;;;;;;;0.72;77.73;93454.47;2068163;69;20148;-71
2021/04/13 05:22:47;;;;;;;11.50;8.95;;;;;;;0.80;77.87;93451.09;2068477;69;20137;-70
2021/04/13 05:25:13;;;;;;;15.43;8.90;;;;;;;1.25;77.14;93459.41;2068679;69;20264;-70
2021/04/13 05:27:39;;;;;;;17.17;9.50;;;;;;;1.35;76.42;93456.94;2068132;69;20168;-70
2021/04/13 05:30:07;;;;;;;12.55;9.52;;;;;;;1.46;75.89;93459.50;2068562;69;20180;-70
2021/04/13 05:32:33;;;;;;;14.98;9.60;;;;;;;1.63;75.24;93462.69;2068673;69;20136;-70
2021/04/13 05:34:59;;;;;;;10.55;9.13;;;;;;;1.33;74.91;93457.50;2068619;69;20529;-71
2021/04/13 05:37:28;;;;;;;13.80;10.23;;;;;;;1.64;74.81;93452.34;2068675;69;20141;-71
2021/04/13 05:39:54;;;;;;;13.95;10.50;;;;;;;1.89;74.48;93461.19;2068750;69;20214;-69
2021/04/13 05:42:28;;;;;;;13.48;9.60;;;;;;;1.78;73.82;93454.56;2068618;69;20214;-70
2021/04/13 05:44:55;;;;;;;11.75;9.38;;;;;;;1.91;73.88;93458.63;2068530;69;20575;-70
2021/04/13 05:47:22;;;;;;;12.68;9.75;;;;;;;1.92;74.16;93463.63;2068655;69;20573;-70
2021/04/13 05:49:47;;;;;;;13.07;9.45;;;;;;;2.12;73.76;93467.03;2068071;69;20170;-69
2021/04/13 05:52:13;;;;;;;13.05;8.10;;;;;;;1.93;72.65;93467.94;2068633;69;20144;-69
2021/04/13 05:54:38;;;;;;;12.57;8.60;;;;;;;1.80;73.31;93469.97;2068664;69;20280;-69
2021/04/13 05:57:05;;;;;;;12.05;8.13;;;;;;;2.05;72.19;93465.66;2068634;69;20515;-69
2021/04/13 05:59:32;;;;;;;11.65;8.60;;;;;;;2.18;72.37;93460.06;2068626;69;20144;-70
2021/04/13 06:01:58;;;;;;;11.55;8.43;;;;;;;2.08;72.55;93472.91;2068578;69;20219;-70
2021/04/13 06:04:24;;;;;;;10.65;8.23;;;;;;;2.34;72.36;93469.34;2068605;69;20136;-70
2021/04/13 06:06:49;;;;;;;11.30;8.52;;;;;;;2.34;71.49;93463.78;2068632;69;20610;-71
2021/04/13 06:09:16;;;;;;;11.05;8.20;;;;;;;2.51;72.20;93466.91;2068660;69;20596;-72
2021/04/13 06:11:43;;;;;;;10.07;8.23;;;;;;;2.43;71.42;93468.09;2068615;69;20164;-72
2021/04/13 06:14:10;;;;;;;12.63;8.48;;;;;;;2.53;71.79;93475.47;2068563;69;20139;-71
2021/04/13 06:16:39;;;;;;;11.27;8.80;;;;;;;2.50;70.95;93467.47;2068516;69;20159;-70
2021/04/13 06:19:06;;;;;;;10.32;8.63;;;;;;;2.58;70.92;93471.06;2068540;69;20148;-70
2021/04/13 06:21:33;;;;;;;10.25;8.68;;;;;;;2.75;71.63;93474.22;2068030;69;20182;-71
2021/04/13 06:23:58;;;;;;;12.48;8.43;;;;;;;2.77;70.73;93474.41;2068563;69;20214;-71
2021/04/13 06:26:24;;;;;;;12.60;8.90;;;;;;;2.44;70.71;93464.06;2068549;69;20160;-70
2021/04/13 06:28:50;;;;;;;11.27;8.40;;;;;;;2.24;69.60;93471.78;2068594;69;20144;-71
2021/04/13 06:31:16;;;;;;;12.48;9.00;;;;;;;2.09;71.94;93466.06;2068398;69;20240;-72
2021/04/13 06:33:42;;;;;;;10.75;8.57;;;;;;;2.79;70.96;93471.84;2068369;69;20228;-72
2021/04/13 06:36:09;;;;;;;12.18;9.18;;;;;;;2.46;69.59;93462.22;2068492;69;20275;-72
2021/04/13 06:38:38;;;;;;;12.93;10.10;;;;;;;2.66;71.10;93460.78;2068415;69;20149;-72
2021/04/13 06:41:25;;;;;;;13.70;9.57;;;;;;;2.55;70.96;93458.25;2068488;69;20152;-72
2021/04/13 06:44:32;;;;;;;12.93;9.13;;;;;;;2.75;68.55;93463.09;2068565;69;20518;-73
2021/04/13 06:46:58;;;;;;;17.58;11.27;;;;;;;2.31;70.53;93456.50;2068627;69;20140;-72
2021/04/13 06:49:35;;;;;;;13.50;10.32;;;;;;;2.12;72.02;93462.22;2068505;69;20487;-72
2021/04/13 06:52:19;;;;;;;14.25;10.80;;;;;;;2.88;70.57;93459.47;2068536;69;20144;-73
2021/04/13 06:55:03;;;;;;;14.15;10.13;;;;;;;2.59;69.79;93455.13;2068504;69;20125;-73
2021/04/13 06:58:23;;;;;;;14.93;10.57;;;;;;;3.09;70.74;93467.09;2068691;69;20166;-74
2021/04/13 07:01:18;;;;;;;12.95;10.43;;;;;;;2.51;71.59;93460.59;2051373;70;20173;-73
2021/04/13 07:04:05;;;;;;;16.08;10.90;;;;;;;2.73;71.18;93467.69;2054338;69;20200;-77
2021/04/13 07:06:41;;;;;;;20.10;11.82;;;;;;;2.20;72.31;93459.53;2067152;69;20141;-71
2021/04/13 07:09:27;;;;;;;13.70;11.13;;;;;;;1.94;72.55;93465.88;2068593;69;20140;-74
2021/04/13 07:12:11;;;;;;;17.05;11.38;;;;;;;2.26;72.42;93458.13;2068464;69;20148;-73
2021/04/13 07:14:53;;;;;;;12.57;9.98;;;;;;;2.84;72.08;93464.66;2068559;69;20573;-73
2021/04/13 07:17:52;;;;;;;13.85;10.52;;;;;;;2.68;70.70;93469.31;2068498;69;20641;-72
2021/04/13 07:20:24;;;;;;;14.80;10.85;;;;;;;2.65;69.83;93453.69;2068472;69;20145;-73
2021/04/13 07:22:52;;;;;;;15.35;10.73;;;;;;;3.11;70.01;93465.25;2068459;69;20172;-73
2021/04/13 07:25:29;;;;;;;15.98;11.30;;;;;;;2.88;70.77;93467.06;2068443;69;20667;-73
2021/04/13 07:27:59;;;;;;;15.80;11.18;;;;;;;3.03;69.53;93461.66;2068579;69;20144;-73
2021/04/13 07:30:41;;;;;;;17.15;11.15;;;;;;;2.51;70.07;93471.72;2068370;69;20311;-72
2021/04/13 07:33:11;;;;;;;14.98;10.38;;;;;;;3.58;71.09;93471.91;2068427;69;20137;-72
2021/04/13 07:35:39;;;;;;;14.00;10.80;;;;;;;4.32;68.72;93477.69;2068562;69;20145;-74
2021/04/13 07:38:25;;;;;;;14.30;10.88;;;;;;;4.29;68.68;93473.94;2068383;69;20183;-72
2021/04/13 07:40:53;;;;;;;13.57;10.43;;;;;;;4.46;66.12;93478.28;2067896;69;20151;-74
2021/04/13 07:43:25;;;;;;;15.68;10.23;;;;;;;4.33;67.24;93468.75;2068382;69;20173;-75
2021/04/13 07:46:15;;;;;;;12.98;10.75;;;;;;;4.15;65.84;93466.28;2067743;69;20153;-72
2021/04/13 07:49:15;;;;;;;14.05;11.05;;;;;;;4.38;66.85;93469.91;2068505;69;20148;-71
2021/04/13 07:52:14;;;;;;;13.25;10.50;;;;;;;4.73;65.36;93464.81;2068375;69;20232;-74
2021/04/13 07:54:40;;;;;;;16.02;11.05;;;;;;;5.08;65.45;93466.69;2068498;69;20165;-72
2021/04/13 07:57:17;;;;;;;16.67;12.30;;;;;;;3.89;66.37;93472.81;2068372;69;20523;-71
2021/04/13 07:59:45;;;;;;;16.35;11.38;;;;;;;4.91;66.94;93466.50;2068256;69;20539;-70
2021/04/13 08:02:11;;;;;;;15.13;11.57;;;;;;;3.60;68.49;93458.19;2068316;69;20145;-73
2021/04/13 08:04:36;;;;;;;14.10;11.32;;;;;;;4.25;65.97;93461.66;2068387;69;20149;-68
2021/04/13 08:07:17;;;;;;;15.60;12.40;;;;;;;4.77;65.12;93460.34;2068373;69;20187;-72
2021/04/13 08:09:43;;;;;;;15.88;12.25;;;;;;;5.09;64.54;93465.41;2068508;69;20528;-68
2021/04/13 08:12:14;;;;;;;13.85;11.98;;;;;;;5.60;63.84;93463.75;2068332;69;20153;-68
2021/04/13 08:14:49;;;;;;;13.25;11.05;;;;;;;5.08;62.85;93458.31;2068303;69;20152;-69
2021/04/13 08:17:20;;;;;;;15.80;11.27;;;;;;;5.28;63.76;93467.84;2068567;69;20141;-70
2021/04/13 08:20:05;;;;;;;12.82;10.98;;;;;;;5.57;63.10;93467.66;2068256;69;20144;-72
2021/04/13 08:22:52;;;;;;;11.90;10.23;;;;;;;3.78;64.56;93468.31;2068270;69;20148;-67
2021/04/13 08:25:47;;;;;;;15.85;11.48;;;;;;;4.84;65.25;93464.44;2068418;69;20145;-71
2021/04/13 08:28:43;;;;;;;13.93;10.85;;;;;;;4.61;65.45;93472.75;2068324;69;20140;-70
2021/04/13 08:34:51;;;;;;;15.02;10.90;;;;;;;5.35;63.57;93467.09;2068255;69;20132;-74
2021/04/13 08:37:56;;;;;;;14.45;10.80;;;;;;;5.28;63.32;93467.09;2067425;69;20154;-69
2021/04/13 08:40:25;;;;;;;14.98;11.05;;;;;;;5.28;64.37;93479.00;2063066;69;20140;-72
2021/04/13 08:43:07;;;;;;;14.73;10.93;;;;;;;5.75;64.34;93477.69;2068235;69;20153;-74
2021/04/13 08:46:25;;;;;;;13.15;10.45;;;;;;;4.77;64.39;93471.50;2068211;69;20522;-70
2021/04/13 08:49:22;;;;;;;16.63;11.25;;;;;;;3.96;67.38;93478.44;2068264;69;20151;-73
2021/04/13 08:52:14;;;;;;;16.80;12.15;;;;;;;3.51;69.46;93474.09;2067651;69;20530;-70
2021/04/13 08:54:42;;;;;;;15.88;11.77;;;;;;;3.92;70.03;93468.94;2068233;69;20170;-70
2021/04/13 08:57:21;;;;;;;17.40;11.68;;;;;;;3.79;69.59;93472.59;2067754;69;20167;-70
2021/04/13 08:59:51;;;;;;;18.95;13.45;;;;;;;3.37;69.80;93466.38;2068659;69;20135;-70
2021/04/13 09:02:35;;;;;;;18.85;11.98;;;;;;;3.09;71.02;93475.44;2068737;69;20214;-69
2021/04/13 09:05:04;;;;;;;16.02;11.05;;;;;;;3.20;70.79;93473.09;2068787;69;20251;-69
2021/04/13 09:07:50;;;;;;;17.50;11.85;;;;;;;3.55;68.88;93479.31;2068819;69;20233;-70
2021/04/13 09:10:49;;;;;;;13.40;11.38;;;;;;;3.62;71.69;93478.63;2068761;69;20153;-69
2021/04/13 09:13:20;;;;;;;13.80;10.32;;;;;;;4.27;68.76;93478.59;2068837;69;20156;-69
2021/04/13 09:16:06;;;;;;;12.40;9.50;;;;;;;5.09;66.36;93482.16;2068546;69;20595;-70
2021/04/13 09:18:44;;;;;;;14.88;11.18;;;;;;;6.04;64.75;93477.47;2066736;69;20155;-69
2021/04/13 09:21:27;;;;;;;16.40;9.70;;;;;;;5.97;62.76;93481.78;2068818;69;20187;-70
2021/04/13 09:24:20;;;;;;;12.57;9.68;;;;;;;6.61;63.17;93472.06;2068782;69;20137;-68
2021/04/13 09:27:04;;;;;;;15.50;10.02;;;;;;;6.74;61.59;93475.91;2068704;69;20145;-71
2021/04/13 09:29:40;;;;;;;10.27;7.68;;;;;;;6.09;58.32;93479.31;2068774;69;20172;-72
2021/04/13 09:32:33;;;;;;;11.07;8.23;;;;;;;5.71;59.68;93474.50;2068687;69;20672;-70
2021/04/13 09:35:10;;;;;;;9.95;8.13;;;;;;;6.08;59.53;93472.25;2068688;69;20149;-70
2021/04/13 09:37:48;;;;;;;10.13;8.25;;;;;;;8.74;58.66;93467.25;2068565;69;20152;-71
2021/04/13 09:40:14;;;;;;;9.07;6.82;;;;;;;9.44;55.94;93471.34;2068609;69;20564;-70
2021/04/13 09:43:10;;;;;;;9.32;7.38;;;;;;;6.22;56.73;93464.38;2068832;69;20243;-71
2021/04/13 09:45:46;;;;;;;8.50;5.93;;;;;;;6.67;52.98;93462.69;2068562;69;20145;-71
2021/04/13 09:48:37;;;;;;;8.60;6.10;;;;;;;6.41;54.80;93452.72;2068842;69;20180;-74
2021/04/13 09:51:21;;;;;;;10.25;4.95;;;;;;;8.14;50.08;93468.09;2068669;69;20157;-71
2021/04/13 09:54:25;;;;;;;12.70;6.63;;;;;;;8.38;48.99;93468.59;2068624;69;20151;-72
2021/04/13 09:57:34;;;;;;;6.25;4.53;;;;;;;7.07;48.57;93460.59;2068424;69;20233;-70
2021/04/13 10:00:16;;;;;;;7.13;5.13;;;;;;;8.34;50.15;93462.66;2068585;69;20155;-71
2021/04/13 10:02:50;;;;;;;6.40;4.57;;;;;;;7.48;47.70;93457.69;2068696;69;20153;-76
2021/04/13 10:05:27;;;;;;;9.70;6.75;;;;;;;8.95;48.99;93453.50;2068737;69;20243;-71
2021/04/13 10:08:10;;;;;;;6.78;5.28;;;;;;;6.88;48.06;93457.56;2068672;69;20227;-71
2021/04/13 10:10:37;;;;;;;8.02;4.65;;;;;;;7.38;46.39;93449.91;2068619;69;20525;-70
2021/04/13 10:13:39;;;;;;;5.47;4.90;;;;;;;7.56;48.19;93449.94;2068576;69;20135;-72
2021/04/13 10:16:27;;;;;;;6.78;5.07;;;;;;;8.69;46.57;93451.41;2068550;69;20156;-70
2021/04/13 10:19:30;;;;;;;7.63;5.38;;;;;;;7.21;45.64;93451.91;2068699;69;20198;-70
2021/04/13 10:22:54;;;;;;;5.75;4.35;;;;;;;6.49;49.67;93445.81;2068641;69;20149;-70
2021/04/13 10:25:25;;;;;;;6.65;5.38;;;;;;;6.71;48.63;93444.19;2056763;69;20268;-70
2021/04/13 10:28:28;;;;;;;4.95;3.88;;;;;;;5.96;46.60;93449.53;2068350;69;20231;-69
2021/04/13 10:30:57;;;;;;;5.13;4.33;;;;;;;9.07;43.48;93437.59;2068353;69;20229;-71
2021/04/13 10:33:34;;;;;;;4.70;4.00;;;;;;;7.55;43.00;93437.25;2068517;69;20144;-71
2021/04/13 10:36:21;;;;;;;4.30;3.70;;;;;;;8.37;40.74;93442.63;2068575;69;20218;-70
2021/04/13 10:39:05;;;;;;;4.38;3.85;;;;;;;7.41;41.45;93442.41;2068494;69;20153;-69
2021/04/13 10:41:40;;;;;;;15.18;9.13;;;;;;;9.39;39.95;93444.22;2068356;69;20148;-70
2021/04/13 10:44:06;;;;;;;6.30;3.88;;;;;;;8.33;39.10;93441.50;2068527;69;20210;-68
2021/04/13 10:46:50;;;;;;;5.25;3.70;;;;;;;9.14;37.99;93445.16;2068361;69;20140;-73
2021/04/13 10:49:36;;;;;;;3.45;3.15;;;;;;;7.82;40.67;93448.59;2068517;69;20152;-71
2021/04/13 10:52:13;;;;;;;4.45;3.85;;;;;;;8.67;42.08;93443.56;2068521;69;20211;-70
2021/04/13 10:55:07;;;;;;;5.57;3.90;;;;;;;8.55;41.80;93451.00;2068491;69;20148;-74
2021/04/13 10:57:50;;;;;;;;;;;;;;;6.55;44.58;93457.53;2068787;69;20145;-71
2021/04/13 11:00:19;;;;;;;5.22;4.13;;;;;;;8.23;43.34;93447.06;2068351;69;20041;-72
2021/04/13 11:03:04;;;;;;;5.05;3.95;;;;;;;9.53;37.42;93453.78;2066078;69;20192;-71
2021/04/13 11:05:43;;;;;;;4.97;4.40;;;;;;;9.95;39.43;93438.63;2064975;69;20192;-72
2021/04/13 11:08:46;;;;;;;6.25;4.50;;;;;;;8.38;42.03;93437.75;2065001;69;20149;-70
2021/04/13 11:11:36;;;;;;;7.88;4.53;;;;;;;9.41;39.57;93450.00;2065008;69;20222;-71
2021/04/13 11:14:30;;;;;;;6.30;5.65;;;;;;;12.33;37.29;93448.28;2065127;69;20153;-75
2021/04/13 11:17:14;;;;;;;4.93;4.25;;;;;;;11.05;36.92;93441.00;2064912;69;20149;-71
2021/04/13 11:19:56;;;;;;;4.90;4.40;;;;;;;10.25;37.27;93442.97;2064957;69;20364;-70
2021/04/13 11:23:07;;;;;;;4.50;3.75;;;;;;;8.94;37.47;93435.16;2065054;69;20596;-70
2021/04/13 11:26:08;;;;;;;4.82;3.70;;;;;;;9.83;37.84;93432.09;2063429;69;20137;-74
2021/04/13 11:29:08;;;;;;;4.88;4.00;;;;;;;12.72;32.36;93428.94;2064917;69;20240;-73
2021/04/13 11:31:55;;;;;;;4.82;4.00;;;;;;;14.86;28.88;93444.00;2064859;69;20145;-73
2021/04/13 11:34:29;;;;;;;3.63;3.22;;;;;;;16.33;27.86;93432.03;2065021;69;20566;-72
2021/04/13 11:37:09;;;;;;;3.65;3.30;;;;;;;14.68;27.84;93435.19;2064963;69;20248;-72
2021/04/13 11:40:14;;;;;;;3.92;3.47;;;;;;;13.10;29.84;93425.00;2064834;69;20584;-72
2021/04/13 11:42:41;;;;;;;3.70;3.30;;;;;;;12.82;30.02;93415.44;2064920;69;20160;-72
2021/04/13 11:45:32;;;;;;;5.60;4.55;;;;;;;12.72;29.39;93420.44;2064876;69;20149;-73
2021/04/13 11:48:16;;;;;;;5.25;4.60;;;;;;;14.92;29.29;93427.31;2064675;69;20144;-71
2021/04/13 11:51:06;;;;;;;3.75;3.35;;;;;;;16.37;26.18;93424.44;2064780;69;20164;-75
2021/04/13 11:53:42;;;;;;;3.10;2.80;;;;;;;13.86;27.58;93416.22;2064754;69;20180;-75
2021/04/13 11:56:35;;;;;;;4.97;3.97;;;;;;;12.47;28.71;93412.50;2064899;69;20192;-73
2021/04/13 11:59:13;;;;;;;3.28;2.97;;;;;;;14.75;27.94;93417.16;2063770;69;20212;-74
2021/04/13 12:01:44;;;;;;;3.85;3.40;;;;;;;16.43;24.07;93419.06;2064775;69;20234;-75
2021/04/13 12:04:39;;;;;;;4.40;3.30;;;;;;;14.58;27.09;93417.59;2065111;69;20184;-70
2021/04/13 12:07:06;;;;;;;3.53;3.15;;;;;;;13.35;29.47;93409.56;2064543;69;20181;-73
2021/04/13 12:09:58;;;;;;;3.95;2.92;;;;;;;10.57;32.35;93402.38;2064934;69;20606;-74
2021/04/13 12:12:30;;;;;;;3.15;2.78;;;;;;;15.12;27.64;93407.84;2064894;69;20148;-75
2021/04/13 12:15:03;;;;;;;4.10;2.80;;;;;;;13.93;28.27;93411.69;2064755;69;20256;-73
2021/04/13 12:17:53;;;;;;;4.15;2.67;;;;;;;11.77;29.48;93406.41;2064970;69;20594;-71
2021/04/13 12:20:33;;;;;;;3.20;2.90;;;;;;;11.32;32.14;93409.03;2063200;69;20231;-72
2021/04/13 12:23:02;;;;;;;3.63;3.00;;;;;;;8.54;34.64;93401.81;2064801;69;20641;-72
2021/04/13 12:26:03;;;;;;;4.78;3.28;;;;;;;8.52;34.14;93402.41;2064820;69;20152;-73